sensor_id;sensor_type;location;lat;lon;timestamp;temperature;humidity
33077;DHT22;38790;51.964;5.924;2022-09-09T00:04:31;15.20;99.90
33077;DHT22;38790;51.964;5.924;2022-09-09T00:10:23;15.20;99.90
33077;DHT22;38790;51.964;5.924;2022-09-09T00:13:19;15.20;99.90
33077;DHT22;38790;51.964;5.924;2022-09-09T00:24:29;15.20;99.90
33077;DHT22;38790;51.964;5.924;2022-09-09T00:27:04;15.10;99.90
33077;DHT22;38790;51.964;5.924;2022-09-09T00:29:52;15.10;99.90
33077;DHT22;38790;51.964;5.924;2022-09-09T00:32:20;15.20;99.90
33077;DHT22;38790;51.964;5.924;2022-09-09T00:35:03;15.20;99.90
33077;DHT22;38790;51.964;5.924;2022-09-09T00:37:32;15.30;99.90
33077;DHT22;38790;51.964;5.924;2022-09-09T00:40:02;15.40;99.90
33077;DHT22;38790;51.964;5.924;2022-09-09T00:42:43;15.40;99.90
33077;DHT22;38790;51.964;5.924;2022-09-09T00:48:06;15.40;99.90
33077;DHT22;38790;51.964;5.924;2022-09-09T00:50:57;15.30;99.90
33077;DHT22;38790;51.964;5.924;2022-09-09T00:56:25;15.20;99.90
33077;DHT22;38790;51.964;5.924;2022-09-09T01:01:37;15.20;99.90
33077;DHT22;38790;51.964;5.924;2022-09-09T01:04:13;15.10;99.90
33077;DHT22;38790;51.964;5.924;2022-09-09T01:06:43;15.10;99.90
33077;DHT22;38790;51.964;5.924;2022-09-09T01:12:15;15.00;99.90
33077;DHT22;38790;51.964;5.924;2022-09-09T01:14:48;14.90;99.90
33077;DHT22;38790;51.964;5.924;2022-09-09T01:25:11;14.60;99.90
33077;DHT22;38790;51.964;5.924;2022-09-09T01:27:42;14.50;99.90
33077;DHT22;38790;51.964;5.924;2022-09-09T01:30:15;14.50;99.90
33077;DHT22;38790;51.964;5.924;2022-09-09T01:32:45;14.40;99.90
33077;DHT22;38790;51.964;5.924;2022-09-09T01:35:38;14.40;99.90
33077;DHT22;38790;51.964;5.924;2022-09-09T01:38:01;14.30;99.90
33077;DHT22;38790;51.964;5.924;2022-09-09T01:40:27;14.30;99.90
33077;DHT22;38790;51.964;5.924;2022-09-09T01:42:54;14.30;99.90
33077;DHT22;38790;51.964;5.924;2022-09-09T01:45:21;14.30;99.90
33077;DHT22;38790;51.964;5.924;2022-09-09T01:47:47;14.20;99.90
33077;DHT22;38790;51.964;5.924;2022-09-09T01:50:15;14.20;99.90
33077;DHT22;38790;51.964;5.924;2022-09-09T01:52:44;14.20;99.90
33077;DHT22;38790;51.964;5.924;2022-09-09T01:55:12;14.20;99.90
33077;DHT22;38790;51.964;5.924;2022-09-09T02:00:36;14.20;99.90
33077;DHT22;38790;51.964;5.924;2022-09-09T02:03:19;14.10;99.90
33077;DHT22;38790;51.964;5.924;2022-09-09T02:06:54;14.10;99.90
33077;DHT22;38790;51.964;5.924;2022-09-09T02:08:50;14.10;99.90
33077;DHT22;38790;51.964;5.924;2022-09-09T02:11:18;14.10;99.90
33077;DHT22;38790;51.964;5.924;2022-09-09T02:13:47;14.00;99.90
33077;DHT22;38790;51.964;5.924;2022-09-09T02:16:27;14.10;99.90
33077;DHT22;38790;51.964;5.924;2022-09-09T02:19:16;14.00;99.90
33077;DHT22;38790;51.964;5.924;2022-09-09T02:21:59;14.00;99.90
33077;DHT22;38790;51.964;5.924;2022-09-09T02:24:27;13.90;99.90
33077;DHT22;38790;51.964;5.924;2022-09-09T02:26:56;13.80;99.90
33077;DHT22;38790;51.964;5.924;2022-09-09T02:29:26;13.70;99.90
33077;DHT22;38790;51.964;5.924;2022-09-09T02:31:57;13.70;99.90
33077;DHT22;38790;51.964;5.924;2022-09-09T02:34:30;13.70;99.90
33077;DHT22;38790;51.964;5.924;2022-09-09T02:36:59;13.70;99.90
33077;DHT22;38790;51.964;5.924;2022-09-09T02:39:26;13.70;99.90
33077;DHT22;38790;51.964;5.924;2022-09-09T02:41:52;13.60;99.90
33077;DHT22;38790;51.964;5.924;2022-09-09T02:44:21;13.60;99.90
33077;DHT22;38790;51.964;5.924;2022-09-09T02:52:42;13.50;99.90
33077;DHT22;38790;51.964;5.924;2022-09-09T02:58:05;13.40;99.90
33077;DHT22;38790;51.964;5.924;2022-09-09T03:00:33;13.40;99.90
33077;DHT22;38790;51.964;5.924;2022-09-09T03:03:03;13.50;99.90
33077;DHT22;38790;51.964;5.924;2022-09-09T03:05:29;13.50;99.90
33077;DHT22;38790;51.964;5.924;2022-09-09T03:07:55;13.50;99.90
33077;DHT22;38790;51.964;5.924;2022-09-09T03:10:22;13.40;99.90
33077;DHT22;38790;51.964;5.924;2022-09-09T03:12:49;13.40;99.90
33077;DHT22;38790;51.964;5.924;2022-09-09T03:15:16;13.40;99.90
33077;DHT22;38790;51.964;5.924;2022-09-09T03:17:42;13.30;99.90
33077;DHT22;38790;51.964;5.924;2022-09-09T03:20:08;13.30;99.90
33077;DHT22;38790;51.964;5.924;2022-09-09T03:22:35;13.30;99.90
33077;DHT22;38790;51.964;5.924;2022-09-09T03:25:01;13.30;99.90
33077;DHT22;38790;51.964;5.924;2022-09-09T03:27:28;13.40;99.90
33077;DHT22;38790;51.964;5.924;2022-09-09T03:29:55;13.40;99.90
33077;DHT22;38790;51.964;5.924;2022-09-09T03:32:21;13.40;99.90
33077;DHT22;38790;51.964;5.924;2022-09-09T03:34:48;13.40;99.90
33077;DHT22;38790;51.964;5.924;2022-09-09T03:37:18;13.40;99.90
33077;DHT22;38790;51.964;5.924;2022-09-09T03:39:45;13.40;99.90
33077;DHT22;38790;51.964;5.924;2022-09-09T03:42:15;13.40;99.90
33077;DHT22;38790;51.964;5.924;2022-09-09T03:44:45;13.40;99.90
33077;DHT22;38790;51.964;5.924;2022-09-09T03:47:19;13.40;99.90
33077;DHT22;38790;51.964;5.924;2022-09-09T03:49:47;13.40;99.90
33077;DHT22;38790;51.964;5.924;2022-09-09T03:52:14;13.40;99.90
33077;DHT22;38790;51.964;5.924;2022-09-09T03:54:41;13.40;99.90
33077;DHT22;38790;51.964;5.924;2022-09-09T03:57:11;13.40;99.90
33077;DHT22;38790;51.964;5.924;2022-09-09T03:59:37;13.40;99.90
33077;DHT22;38790;51.964;5.924;2022-09-09T04:02:03;13.50;99.90
33077;DHT22;38790;51.964;5.924;2022-09-09T04:04:30;13.60;99.90
33077;DHT22;38790;51.964;5.924;2022-09-09T04:06:56;13.70;99.90
33077;DHT22;38790;51.964;5.924;2022-09-09T04:09:22;13.70;99.90
33077;DHT22;38790;51.964;5.924;2022-09-09T04:11:48;13.80;99.90
33077;DHT22;38790;51.964;5.924;2022-09-09T04:14:15;13.80;99.90
33077;DHT22;38790;51.964;5.924;2022-09-09T04:16:41;13.80;99.90
33077;DHT22;38790;51.964;5.924;2022-09-09T04:19:11;13.80;99.90
33077;DHT22;38790;51.964;5.924;2022-09-09T04:21:40;13.90;99.90
33077;DHT22;38790;51.964;5.924;2022-09-09T04:24:07;13.90;99.90
33077;DHT22;38790;51.964;5.924;2022-09-09T04:26:35;13.90;99.90
33077;DHT22;38790;51.964;5.924;2022-09-09T04:29:03;13.90;99.90
33077;DHT22;38790;51.964;5.924;2022-09-09T04:31:30;13.90;99.90
33077;DHT22;38790;51.964;5.924;2022-09-09T04:33:56;13.90;99.90
33077;DHT22;38790;51.964;5.924;2022-09-09T04:36:22;13.90;99.90
33077;DHT22;38790;51.964;5.924;2022-09-09T04:38:48;13.80;99.90
33077;DHT22;38790;51.964;5.924;2022-09-09T04:41:15;13.80;99.90
33077;DHT22;38790;51.964;5.924;2022-09-09T04:43:42;13.90;99.90
33077;DHT22;38790;51.964;5.924;2022-09-09T04:46:08;13.90;99.90
33077;DHT22;38790;51.964;5.924;2022-09-09T04:48:35;13.90;99.90
33077;DHT22;38790;51.964;5.924;2022-09-09T04:51:04;13.90;99.90
33077;DHT22;38790;51.964;5.924;2022-09-09T04:53:31;13.90;99.90
33077;DHT22;38790;51.964;5.924;2022-09-09T04:56:08;14.00;99.90
33077;DHT22;38790;51.964;5.924;2022-09-09T04:58:36;14.00;99.90
33077;DHT22;38790;51.964;5.924;2022-09-09T05:01:07;14.10;99.90
33077;DHT22;38790;51.964;5.924;2022-09-09T05:03:34;14.10;99.90
33077;DHT22;38790;51.964;5.924;2022-09-09T05:06:08;14.20;99.90
33077;DHT22;38790;51.964;5.924;2022-09-09T05:08:39;14.20;99.90
33077;DHT22;38790;51.964;5.924;2022-09-09T05:11:25;14.20;99.90
33077;DHT22;38790;51.964;5.924;2022-09-09T05:13:53;14.30;99.90
33077;DHT22;38790;51.964;5.924;2022-09-09T05:16:20;14.40;99.90
33077;DHT22;38790;51.964;5.924;2022-09-09T05:18:47;14.40;99.90
33077;DHT22;38790;51.964;5.924;2022-09-09T05:21:14;14.50;99.90
33077;DHT22;38790;51.964;5.924;2022-09-09T05:23:41;14.50;99.90
33077;DHT22;38790;51.964;5.924;2022-09-09T05:26:11;14.50;99.90
33077;DHT22;38790;51.964;5.924;2022-09-09T05:28:37;14.50;99.90
33077;DHT22;38790;51.964;5.924;2022-09-09T05:31:06;14.60;99.90
33077;DHT22;38790;51.964;5.924;2022-09-09T05:33:34;14.60;99.90
33077;DHT22;38790;51.964;5.924;2022-09-09T05:36:07;14.60;99.90
33077;DHT22;38790;51.964;5.924;2022-09-09T05:38:34;14.70;99.90
33077;DHT22;38790;51.964;5.924;2022-09-09T05:41:02;14.70;99.90
33077;DHT22;38790;51.964;5.924;2022-09-09T05:43:29;14.70;99.90
33077;DHT22;38790;51.964;5.924;2022-09-09T05:46:04;14.80;99.90
33077;DHT22;38790;51.964;5.924;2022-09-09T05:48:31;14.80;99.90
33077;DHT22;38790;51.964;5.924;2022-09-09T05:50:58;14.80;99.90
33077;DHT22;38790;51.964;5.924;2022-09-09T05:53:26;14.80;99.90
33077;DHT22;38790;51.964;5.924;2022-09-09T05:56:07;14.80;99.90
33077;DHT22;38790;51.964;5.924;2022-09-09T05:58:34;14.90;99.90
33077;DHT22;38790;51.964;5.924;2022-09-09T06:01:14;14.80;99.90
33077;DHT22;38790;51.964;5.924;2022-09-09T06:03:42;14.80;99.90
33077;DHT22;38790;51.964;5.924;2022-09-09T06:06:12;14.90;99.90
33077;DHT22;38790;51.964;5.924;2022-09-09T06:08:40;14.90;99.90
33077;DHT22;38790;51.964;5.924;2022-09-09T06:11:09;14.90;99.90
33077;DHT22;38790;51.964;5.924;2022-09-09T06:13:37;15.00;99.90
33077;DHT22;38790;51.964;5.924;2022-09-09T06:16:05;15.10;99.90
33077;DHT22;38790;51.964;5.924;2022-09-09T06:18:33;15.20;99.90
33077;DHT22;38790;51.964;5.924;2022-09-09T06:21:04;15.30;99.90
33077;DHT22;38790;51.964;5.924;2022-09-09T06:23:33;15.40;99.90
33077;DHT22;38790;51.964;5.924;2022-09-09T06:26:10;15.50;99.90
33077;DHT22;38790;51.964;5.924;2022-09-09T06:28:37;15.60;99.90
33077;DHT22;38790;51.964;5.924;2022-09-09T06:31:08;15.60;99.90
33077;DHT22;38790;51.964;5.924;2022-09-09T06:33:36;15.80;99.90
33077;DHT22;38790;51.964;5.924;2022-09-09T06:36:05;16.00;99.90
33077;DHT22;38790;51.964;5.924;2022-09-09T06:38:32;16.10;99.90
33077;DHT22;38790;51.964;5.924;2022-09-09T06:40:59;16.10;99.90
33077;DHT22;38790;51.964;5.924;2022-09-09T06:43:26;16.10;99.90
33077;DHT22;38790;51.964;5.924;2022-09-09T06:46:00;16.10;99.90
33077;DHT22;38790;51.964;5.924;2022-09-09T06:48:27;16.00;99.90
33077;DHT22;38790;51.964;5.924;2022-09-09T06:53:33;16.40;99.90
33077;DHT22;38790;51.964;5.924;2022-09-09T06:58:45;16.50;99.90
33077;DHT22;38790;51.964;5.924;2022-09-09T07:01:13;16.70;99.90
33077;DHT22;38790;51.964;5.924;2022-09-09T07:03:40;17.00;99.90
33077;DHT22;38790;51.964;5.924;2022-09-09T07:06:08;17.30;99.90
33077;DHT22;38790;51.964;5.924;2022-09-09T07:08:35;17.40;99.90
33077;DHT22;38790;51.964;5.924;2022-09-09T07:11:05;17.40;99.90
33077;DHT22;38790;51.964;5.924;2022-09-09T07:13:32;17.60;99.90
33077;DHT22;38790;51.964;5.924;2022-09-09T07:16:06;17.80;99.90
33077;DHT22;38790;51.964;5.924;2022-09-09T07:18:32;17.90;99.90
33077;DHT22;38790;51.964;5.924;2022-09-09T07:20:59;18.20;99.90
33077;DHT22;38790;51.964;5.924;2022-09-09T07:23:25;18.10;99.90
33077;DHT22;38790;51.964;5.924;2022-09-09T07:25:52;17.90;99.90
33077;DHT22;38790;51.964;5.924;2022-09-09T07:28:22;17.60;99.90
33077;DHT22;38790;51.964;5.924;2022-09-09T07:30:59;17.40;99.90
33077;DHT22;38790;51.964;5.924;2022-09-09T07:33:29;17.40;99.90
33077;DHT22;38790;51.964;5.924;2022-09-09T07:36:12;17.40;99.90
33077;DHT22;38790;51.964;5.924;2022-09-09T07:38:50;17.40;99.90
33077;DHT22;38790;51.964;5.924;2022-09-09T07:41:23;17.70;99.90
33077;DHT22;38790;51.964;5.924;2022-09-09T07:43:51;17.90;99.90
33077;DHT22;38790;51.964;5.924;2022-09-09T07:46:21;17.90;99.90
33077;DHT22;38790;51.964;5.924;2022-09-09T07:48:49;18.10;99.90
33077;DHT22;38790;51.964;5.924;2022-09-09T07:51:23;18.30;99.90
33077;DHT22;38790;51.964;5.924;2022-09-09T07:53:55;18.40;99.90
33077;DHT22;38790;51.964;5.924;2022-09-09T07:56:24;18.30;99.90
33077;DHT22;38790;51.964;5.924;2022-09-09T07:58:52;18.10;99.90
33077;DHT22;38790;51.964;5.924;2022-09-09T08:01:22;18.00;99.90
33077;DHT22;38790;51.964;5.924;2022-09-09T08:03:59;17.90;99.90
33077;DHT22;38790;51.964;5.924;2022-09-09T08:06:28;18.00;99.90
33077;DHT22;38790;51.964;5.924;2022-09-09T08:08:55;18.20;99.90
33077;DHT22;38790;51.964;5.924;2022-09-09T08:11:25;17.90;99.90
33077;DHT22;38790;51.964;5.924;2022-09-09T08:13:53;17.70;99.90
33077;DHT22;38790;51.964;5.924;2022-09-09T08:16:22;17.60;99.90
33077;DHT22;38790;51.964;5.924;2022-09-09T08:18:49;17.50;99.90
33077;DHT22;38790;51.964;5.924;2022-09-09T08:21:18;17.40;99.90
33077;DHT22;38790;51.964;5.924;2022-09-09T08:23:45;17.30;99.90
33077;DHT22;38790;51.964;5.924;2022-09-09T08:26:21;17.30;99.90
33077;DHT22;38790;51.964;5.924;2022-09-09T08:28:54;17.40;99.90
33077;DHT22;38790;51.964;5.924;2022-09-09T08:31:23;17.50;99.90
33077;DHT22;38790;51.964;5.924;2022-09-09T08:33:50;17.70;99.90
33077;DHT22;38790;51.964;5.924;2022-09-09T08:36:20;17.80;99.90
33077;DHT22;38790;51.964;5.924;2022-09-09T08:38:49;17.70;99.90
33077;DHT22;38790;51.964;5.924;2022-09-09T08:44:10;17.60;99.90
33077;DHT22;38790;51.964;5.924;2022-09-09T08:47:06;17.70;99.90
33077;DHT22;38790;51.964;5.924;2022-09-09T08:52:36;17.50;99.90
33077;DHT22;38790;51.964;5.924;2022-09-09T08:55:20;17.50;99.90
33077;DHT22;38790;51.964;5.924;2022-09-09T08:57:52;17.50;99.90
33077;DHT22;38790;51.964;5.924;2022-09-09T09:00:20;17.60;99.90
33077;DHT22;38790;51.964;5.924;2022-09-09T09:10:53;17.70;99.90
33077;DHT22;38790;51.964;5.924;2022-09-09T09:15:54;17.80;99.90
33077;DHT22;38790;51.964;5.924;2022-09-09T09:18:22;17.90;99.90
33077;DHT22;38790;51.964;5.924;2022-09-09T09:20:59;18.00;99.90
33077;DHT22;38790;51.964;5.924;2022-09-09T09:24:18;18.10;99.90
33077;DHT22;38790;51.964;5.924;2022-09-09T09:26:18;18.10;99.90
33077;DHT22;38790;51.964;5.924;2022-09-09T09:28:45;18.10;99.90
33077;DHT22;38790;51.964;5.924;2022-09-09T09:31:12;18.10;99.90
33077;DHT22;38790;51.964;5.924;2022-09-09T09:33:49;18.00;99.90
33077;DHT22;38790;51.964;5.924;2022-09-09T09:36:16;17.90;99.90
33077;DHT22;38790;51.964;5.924;2022-09-09T09:38:59;17.80;99.90
33077;DHT22;38790;51.964;5.924;2022-09-09T09:41:41;17.90;99.90
33077;DHT22;38790;51.964;5.924;2022-09-09T09:47:04;18.30;99.90
33077;DHT22;38790;51.964;5.924;2022-09-09T09:49:30;18.40;99.90
33077;DHT22;38790;51.964;5.924;2022-09-09T09:52:02;18.40;99.90
33077;DHT22;38790;51.964;5.924;2022-09-09T09:54:31;18.60;99.90
33077;DHT22;38790;51.964;5.924;2022-09-09T09:57:12;18.80;99.90
33077;DHT22;38790;51.964;5.924;2022-09-09T09:59:39;19.00;99.90
33077;DHT22;38790;51.964;5.924;2022-09-09T10:04:43;19.10;99.90
33077;DHT22;38790;51.964;5.924;2022-09-09T10:07:20;19.10;99.90
33077;DHT22;38790;51.964;5.924;2022-09-09T10:09:53;19.00;99.90
33077;DHT22;38790;51.964;5.924;2022-09-09T10:21:20;18.30;99.90
33077;DHT22;38790;51.964;5.924;2022-09-09T10:24:14;18.30;99.90
33077;DHT22;38790;51.964;5.924;2022-09-09T10:27:36;18.30;99.90
33077;DHT22;38790;51.964;5.924;2022-09-09T10:38:17;18.30;99.90
33077;DHT22;38790;51.964;5.924;2022-09-09T10:43:35;18.40;99.90
33077;DHT22;38790;51.964;5.924;2022-09-09T10:46:15;18.30;99.90
33077;DHT22;38790;51.964;5.924;2022-09-09T10:51:54;18.30;99.90
33077;DHT22;38790;51.964;5.924;2022-09-09T10:59:55;18.50;99.90
33077;DHT22;38790;51.964;5.924;2022-09-09T11:02:28;18.70;99.90
33077;DHT22;38790;51.964;5.924;2022-09-09T11:05:06;18.70;99.90
33077;DHT22;38790;51.964;5.924;2022-09-09T11:07:41;18.80;99.90
33077;DHT22;38790;51.964;5.924;2022-09-09T11:13:03;18.90;99.90
33077;DHT22;38790;51.964;5.924;2022-09-09T11:15:38;18.90;99.90
33077;DHT22;38790;51.964;5.924;2022-09-09T11:18:13;18.80;99.90
33077;DHT22;38790;51.964;5.924;2022-09-09T11:20:42;18.70;99.90
33077;DHT22;38790;51.964;5.924;2022-09-09T11:23:14;18.70;99.90
33077;DHT22;38790;51.964;5.924;2022-09-09T11:25:45;18.60;99.90
33077;DHT22;38790;51.964;5.924;2022-09-09T11:33:51;19.40;99.90
33077;DHT22;38790;51.964;5.924;2022-09-09T11:42:25;19.10;99.90
33077;DHT22;38790;51.964;5.924;2022-09-09T11:44:52;19.10;99.90
33077;DHT22;38790;51.964;5.924;2022-09-09T11:47:30;19.10;99.90
33077;DHT22;38790;51.964;5.924;2022-09-09T11:52:43;19.50;99.90
33077;DHT22;38790;51.964;5.924;2022-09-09T11:55:32;19.40;99.90
33077;DHT22;38790;51.964;5.924;2022-09-09T11:58:25;19.30;99.90
33077;DHT22;38790;51.964;5.924;2022-09-09T12:00:50;19.00;99.90
33077;DHT22;38790;51.964;5.924;2022-09-09T12:03:41;18.70;99.90
33077;DHT22;38790;51.964;5.924;2022-09-09T12:06:15;18.60;99.90
33077;DHT22;38790;51.964;5.924;2022-09-09T12:08:45;18.60;99.90
33077;DHT22;38790;51.964;5.924;2022-09-09T12:11:27;18.70;99.90
33077;DHT22;38790;51.964;5.924;2022-09-09T12:13:56;18.90;99.90
33077;DHT22;38790;51.964;5.924;2022-09-09T12:16:36;19.10;99.90
33077;DHT22;38790;51.964;5.924;2022-09-09T12:19:21;19.40;99.90
33077;DHT22;38790;51.964;5.924;2022-09-09T12:27:23;18.90;99.90
33077;DHT22;38790;51.964;5.924;2022-09-09T12:30:03;18.70;99.90
33077;DHT22;38790;51.964;5.924;2022-09-09T12:32:30;18.70;99.90
33077;DHT22;38790;51.964;5.924;2022-09-09T12:37:46;19.10;99.90
33077;DHT22;38790;51.964;5.924;2022-09-09T12:40:33;19.40;99.90
33077;DHT22;38790;51.964;5.924;2022-09-09T12:43:02;19.50;99.90
33077;DHT22;38790;51.964;5.924;2022-09-09T12:45:42;19.60;99.90
33077;DHT22;38790;51.964;5.924;2022-09-09T12:48:09;19.50;99.90
33077;DHT22;38790;51.964;5.924;2022-09-09T12:50:51;19.50;99.90
33077;DHT22;38790;51.964;5.924;2022-09-09T12:53:30;19.60;99.90
33077;DHT22;38790;51.964;5.924;2022-09-09T12:56:08;19.70;99.90
33077;DHT22;38790;51.964;5.924;2022-09-09T12:58:37;19.70;99.90
33077;DHT22;38790;51.964;5.924;2022-09-09T13:01:05;19.70;99.90
33077;DHT22;38790;51.964;5.924;2022-09-09T13:03:42;19.60;99.90
33077;DHT22;38790;51.964;5.924;2022-09-09T13:06:16;19.50;99.90
33077;DHT22;38790;51.964;5.924;2022-09-09T13:08:44;19.30;99.90
33077;DHT22;38790;51.964;5.924;2022-09-09T13:11:14;19.10;99.90
33077;DHT22;38790;51.964;5.924;2022-09-09T13:13:42;18.90;99.90
33077;DHT22;38790;51.964;5.924;2022-09-09T13:16:22;18.80;99.90
33077;DHT22;38790;51.964;5.924;2022-09-09T13:18:48;18.80;99.90
33077;DHT22;38790;51.964;5.924;2022-09-09T13:21:15;19.10;99.90
33077;DHT22;38790;51.964;5.924;2022-09-09T13:23:41;19.30;99.90
33077;DHT22;38790;51.964;5.924;2022-09-09T13:26:25;19.40;99.90
33077;DHT22;38790;51.964;5.924;2022-09-09T13:28:53;19.60;99.90
33077;DHT22;38790;51.964;5.924;2022-09-09T13:31:23;19.60;99.90
33077;DHT22;38790;51.964;5.924;2022-09-09T13:33:49;19.60;99.90
33077;DHT22;38790;51.964;5.924;2022-09-09T13:36:15;19.50;99.90
33077;DHT22;38790;51.964;5.924;2022-09-09T13:41:23;19.50;99.90
33077;DHT22;38790;51.964;5.924;2022-09-09T13:43:51;19.50;99.90
33077;DHT22;38790;51.964;5.924;2022-09-09T13:46:33;19.60;99.90
33077;DHT22;38790;51.964;5.924;2022-09-09T13:51:41;19.80;99.90
33077;DHT22;38790;51.964;5.924;2022-09-09T13:54:13;19.70;99.90
33077;DHT22;38790;51.964;5.924;2022-09-09T13:56:40;19.40;99.90
33077;DHT22;38790;51.964;5.924;2022-09-09T13:59:10;19.10;99.90
33077;DHT22;38790;51.964;5.924;2022-09-09T14:01:37;18.90;99.90
33077;DHT22;38790;51.964;5.924;2022-09-09T14:04:03;18.80;99.90
33077;DHT22;38790;51.964;5.924;2022-09-09T14:06:32;18.70;99.90
33077;DHT22;38790;51.964;5.924;2022-09-09T14:08:59;18.70;99.90
33077;DHT22;38790;51.964;5.924;2022-09-09T14:11:25;18.70;99.90
33077;DHT22;38790;51.964;5.924;2022-09-09T14:13:51;18.80;99.90
33077;DHT22;38790;51.964;5.924;2022-09-09T14:16:18;19.10;99.90
33077;DHT22;38790;51.964;5.924;2022-09-09T14:18:45;19.10;99.90
33077;DHT22;38790;51.964;5.924;2022-09-09T14:21:11;19.10;99.90
33077;DHT22;38790;51.964;5.924;2022-09-09T14:23:38;19.10;99.90
33077;DHT22;38790;51.964;5.924;2022-09-09T14:26:05;19.20;99.90
33077;DHT22;38790;51.964;5.924;2022-09-09T14:28:32;19.20;99.90
33077;DHT22;38790;51.964;5.924;2022-09-09T14:31:00;19.10;99.90
33077;DHT22;38790;51.964;5.924;2022-09-09T14:33:27;19.00;99.90
33077;DHT22;38790;51.964;5.924;2022-09-09T14:35:59;18.90;99.90
33077;DHT22;38790;51.964;5.924;2022-09-09T14:38:29;18.80;99.90
33077;DHT22;38790;51.964;5.924;2022-09-09T14:40:55;18.80;99.90
33077;DHT22;38790;51.964;5.924;2022-09-09T14:43:22;18.80;99.90
33077;DHT22;38790;51.964;5.924;2022-09-09T14:45:48;18.90;99.90
33077;DHT22;38790;51.964;5.924;2022-09-09T14:48:14;19.00;99.90
33077;DHT22;38790;51.964;5.924;2022-09-09T14:50:41;19.10;99.90
33077;DHT22;38790;51.964;5.924;2022-09-09T14:53:08;19.20;99.90
33077;DHT22;38790;51.964;5.924;2022-09-09T14:55:35;19.20;99.90
33077;DHT22;38790;51.964;5.924;2022-09-09T14:58:01;19.20;99.90
33077;DHT22;38790;51.964;5.924;2022-09-09T15:00:28;19.30;99.90
33077;DHT22;38790;51.964;5.924;2022-09-09T15:02:54;19.40;99.90
33077;DHT22;38790;51.964;5.924;2022-09-09T15:05:21;19.50;99.90
33077;DHT22;38790;51.964;5.924;2022-09-09T15:07:47;19.50;99.90
33077;DHT22;38790;51.964;5.924;2022-09-09T15:10:14;19.60;99.90
33077;DHT22;38790;51.964;5.924;2022-09-09T15:12:40;19.50;99.90
33077;DHT22;38790;51.964;5.924;2022-09-09T15:15:08;19.50;99.90
33077;DHT22;38790;51.964;5.924;2022-09-09T15:17:35;19.50;99.90
33077;DHT22;38790;51.964;5.924;2022-09-09T15:20:03;19.40;99.90
33077;DHT22;38790;51.964;5.924;2022-09-09T15:22:32;19.40;99.90
33077;DHT22;38790;51.964;5.924;2022-09-09T15:24:58;19.30;99.90
33077;DHT22;38790;51.964;5.924;2022-09-09T15:27:24;19.30;99.90
33077;DHT22;38790;51.964;5.924;2022-09-09T15:29:50;19.20;99.90
33077;DHT22;38790;51.964;5.924;2022-09-09T15:32:17;19.20;99.90
33077;DHT22;38790;51.964;5.924;2022-09-09T15:34:43;19.10;99.90
33077;DHT22;38790;51.964;5.924;2022-09-09T15:37:10;19.10;99.90
33077;DHT22;38790;51.964;5.924;2022-09-09T15:39:39;19.00;99.90
33077;DHT22;38790;51.964;5.924;2022-09-09T15:42:06;18.90;99.90
33077;DHT22;38790;51.964;5.924;2022-09-09T15:44:43;18.80;99.90
33077;DHT22;38790;51.964;5.924;2022-09-09T15:47:12;18.80;99.90
33077;DHT22;38790;51.964;5.924;2022-09-09T15:49:39;18.80;99.90
33077;DHT22;38790;51.964;5.924;2022-09-09T15:52:05;18.90;99.90
33077;DHT22;38790;51.964;5.924;2022-09-09T15:54:41;18.80;99.90
33077;DHT22;38790;51.964;5.924;2022-09-09T15:57:12;18.80;99.90
33077;DHT22;38790;51.964;5.924;2022-09-09T15:59:38;18.80;99.90
33077;DHT22;38790;51.964;5.924;2022-09-09T16:02:06;18.70;99.90
33077;DHT22;38790;51.964;5.924;2022-09-09T16:04:32;18.70;99.90
33077;DHT22;38790;51.964;5.924;2022-09-09T16:07:02;18.70;99.90
33077;DHT22;38790;51.964;5.924;2022-09-09T16:09:29;18.60;99.90
33077;DHT22;38790;51.964;5.924;2022-09-09T16:11:58;18.60;99.90
33077;DHT22;38790;51.964;5.924;2022-09-09T16:14:24;18.40;99.90
33077;DHT22;38790;51.964;5.924;2022-09-09T16:16:51;17.80;99.90
33077;DHT22;38790;51.964;5.924;2022-09-09T16:19:18;17.40;99.90
33077;DHT22;38790;51.964;5.924;2022-09-09T16:21:46;17.20;99.90
33077;DHT22;38790;51.964;5.924;2022-09-09T16:24:16;17.10;99.90
33077;DHT22;38790;51.964;5.924;2022-09-09T16:26:48;17.10;99.90
33077;DHT22;38790;51.964;5.924;2022-09-09T16:29:16;17.10;99.90
33077;DHT22;38790;51.964;5.924;2022-09-09T16:31:44;17.30;99.90
33077;DHT22;38790;51.964;5.924;2022-09-09T16:34:10;17.40;99.90
33077;DHT22;38790;51.964;5.924;2022-09-09T16:36:38;17.50;99.90
33077;DHT22;38790;51.964;5.924;2022-09-09T16:39:06;17.60;99.90
33077;DHT22;38790;51.964;5.924;2022-09-09T16:41:33;17.60;99.90
33077;DHT22;38790;51.964;5.924;2022-09-09T16:44:01;17.60;99.90
33077;DHT22;38790;51.964;5.924;2022-09-09T16:46:29;17.60;99.90
33077;DHT22;38790;51.964;5.924;2022-09-09T16:48:57;17.60;99.90
33077;DHT22;38790;51.964;5.924;2022-09-09T16:51:32;17.50;99.90
33077;DHT22;38790;51.964;5.924;2022-09-09T16:54:01;17.50;99.90
33077;DHT22;38790;51.964;5.924;2022-09-09T16:56:31;17.50;99.90
33077;DHT22;38790;51.964;5.924;2022-09-09T16:59:02;17.40;99.90
33077;DHT22;38790;51.964;5.924;2022-09-09T17:01:30;17.40;99.90
33077;DHT22;38790;51.964;5.924;2022-09-09T17:03:59;17.30;99.90
33077;DHT22;38790;51.964;5.924;2022-09-09T17:06:30;17.30;99.90
33077;DHT22;38790;51.964;5.924;2022-09-09T17:08:59;17.20;99.90
33077;DHT22;38790;51.964;5.924;2022-09-09T17:11:27;17.20;99.90
33077;DHT22;38790;51.964;5.924;2022-09-09T17:13:55;17.10;99.90
33077;DHT22;38790;51.964;5.924;2022-09-09T17:16:24;17.10;99.90
33077;DHT22;38790;51.964;5.924;2022-09-09T17:18:51;17.10;99.90
33077;DHT22;38790;51.964;5.924;2022-09-09T17:21:19;17.10;99.90
33077;DHT22;38790;51.964;5.924;2022-09-09T17:23:46;17.10;99.90
33077;DHT22;38790;51.964;5.924;2022-09-09T17:26:15;17.10;99.90
33077;DHT22;38790;51.964;5.924;2022-09-09T17:28:42;17.10;99.90
33077;DHT22;38790;51.964;5.924;2022-09-09T17:31:10;17.10;99.90
33077;DHT22;38790;51.964;5.924;2022-09-09T17:33:38;16.90;99.90
33077;DHT22;38790;51.964;5.924;2022-09-09T17:36:11;16.90;99.90
33077;DHT22;38790;51.964;5.924;2022-09-09T17:38:38;16.80;99.90
33077;DHT22;38790;51.964;5.924;2022-09-09T17:41:09;16.70;99.90
33077;DHT22;38790;51.964;5.924;2022-09-09T17:43:35;16.70;99.90
33077;DHT22;38790;51.964;5.924;2022-09-09T17:46:14;16.60;99.90
33077;DHT22;38790;51.964;5.924;2022-09-09T17:48:42;16.60;99.90
33077;DHT22;38790;51.964;5.924;2022-09-09T17:51:12;16.50;99.90
33077;DHT22;38790;51.964;5.924;2022-09-09T17:53:41;16.40;99.90
33077;DHT22;38790;51.964;5.924;2022-09-09T17:56:10;16.40;99.90
33077;DHT22;38790;51.964;5.924;2022-09-09T17:58:37;16.40;99.90
33077;DHT22;38790;51.964;5.924;2022-09-09T18:01:09;16.30;99.90
33077;DHT22;38790;51.964;5.924;2022-09-09T18:03:36;16.30;99.90